Time;durP1;ratioP1;P1;durP2;ratioP2;P2;SDS_P1;SDS_P2;PMS_P1;PMS_P2;Temp;Humidity;BMP_temperature;BMP_pressure;BME280_temperature;BME280_humidity;BME280_pressure;Samples;Min_cycle;Max_cycle;Signal;HPM_P1;HPM_P2
2024/03/29 00:02:05;;;;;;;0.73;0.50;;;6.50;55.90;;;1.44;100.00;93859.88;4949516;28;20033;-51
2024/03/29 00:04:31;;;;;;;0.65;0.43;;;6.40;55.90;;;1.38;100.00;93851.19;4952050;28;20386;-47
2024/03/29 00:06:56;;;;;;;0.73;0.40;;;6.40;56.00;;;1.33;100.00;93848.50;4948893;28;20105;-47
2024/03/29 00:09:22;;;;;;;0.32;0.30;;;6.30;56.00;;;1.34;100.00;93836.16;4951704;28;20022;-52
2024/03/29 00:11:49;;;;;;;0.73;0.60;;;6.30;56.10;;;1.34;100.00;93839.56;4950283;28;20037;-46
2024/03/29 00:14:14;;;;;;;0.65;0.57;;;6.20;56.10;;;1.31;100.00;93828.78;4945304;28;20034;-46
2024/03/29 00:16:40;;;;;;;0.85;0.40;;;6.20;56.30;;;1.34;100.00;93834.34;4949739;28;20027;-46
2024/03/29 00:19:06;;;;;;;1.17;0.50;;;6.20;56.30;;;1.29;100.00;93836.94;4948496;28;20022;-47
2024/03/29 00:21:32;;;;;;;0.50;0.50;;;6.20;56.40;;;1.26;100.00;93834.00;4945770;28;20042;-46
2024/03/29 00:23:58;;;;;;;0.50;0.40;;;6.20;56.40;;;1.23;100.00;93829.25;4947976;28;20066;-46
2024/03/29 00:26:24;;;;;;;0.52;0.43;;;6.10;56.50;;;1.20;100.00;93814.81;4942673;28;20463;-49
2024/03/29 00:28:50;;;;;;;1.92;0.50;;;6.10;56.50;;;1.12;100.00;93808.16;4945393;28;20074;-47
2024/03/29 00:31:16;;;;;;;0.47;0.40;;;6.00;56.40;;;1.11;100.00;93792.69;4941998;28;20045;-51
2024/03/29 00:33:42;;;;;;;2.17;0.60;;;6.00;56.60;;;1.07;100.00;93795.03;4943119;28;20391;-49
2024/03/29 00:36:08;;;;;;;0.80;0.50;;;6.00;56.70;;;1.06;100.00;93788.19;4944924;28;20058;-48
2024/03/29 00:38:35;;;;;;;0.60;0.50;;;6.00;56.80;;;1.01;100.00;93779.50;4942796;28;20509;-49
2024/03/29 00:41:01;;;;;;;0.82;0.60;;;6.00;56.90;;;1.04;100.00;93771.13;4949054;28;20035;-48
2024/03/29 00:43:27;;;;;;;0.73;0.50;;;6.00;57.00;;;1.04;100.00;93761.44;4944929;28;20022;-48
2024/03/29 00:45:52;;;;;;;0.40;0.30;;;5.90;56.90;;;0.98;100.00;93757.19;4947535;28;20026;-48
2024/03/29 00:48:20;;;;;;;1.40;0.60;;;5.90;57.00;;;0.98;100.00;93754.56;4944042;28;20027;-50
2024/03/29 00:50:46;;;;;;;0.93;0.40;;;5.90;57.00;;;0.98;100.00;93749.31;4943409;28;20038;-48
2024/03/29 00:53:12;;;;;;;0.95;0.60;;;5.90;57.00;;;0.91;100.00;93748.75;4946604;28;20031;-47
2024/03/29 00:55:38;;;;;;;0.38;0.38;;;5.90;57.00;;;0.89;100.00;93748.97;4945899;28;20092;-47
2024/03/29 00:58:04;;;;;;;0.50;0.40;;;5.90;56.90;;;0.88;100.00;93738.75;4942669;28;20113;-47
2024/03/29 01:00:30;;;;;;;1.25;0.40;;;5.80;57.00;;;0.87;100.00;93724.03;4943596;28;20090;-46
2024/03/29 01:02:57;;;;;;;1.27;0.60;;;5.80;57.00;;;0.88;100.00;93715.94;4945302;28;20081;-48
2024/03/29 01:05:24;;;;;;;0.70;0.50;;;5.80;57.10;;;0.83;100.00;93717.72;4948252;28;20031;-46
2024/03/29 01:07:50;;;;;;;0.55;0.55;;;5.70;57.00;;;0.80;100.00;93718.22;4948586;28;20029;-49
2024/03/29 01:10:16;;;;;;;0.80;0.50;;;5.70;57.10;;;0.79;100.00;93717.44;4947430;28;20030;-46
2024/03/29 01:12:41;;;;;;;0.90;0.50;;;5.80;57.10;;;0.77;100.00;93719.50;4949945;28;20517;-51
2024/03/29 01:15:08;;;;;;;4.03;0.60;;;5.70;57.20;;;0.72;100.00;93706.34;4947648;28;20026;-46
2024/03/29 01:17:34;;;;;;;1.20;0.50;;;5.70;57.30;;;0.77;100.00;93711.63;4944935;28;20061;-46
2024/03/29 01:20:00;;;;;;;1.08;0.55;;;5.70;57.30;;;0.76;100.00;93702.22;4944115;28;20667;-50
2024/03/29 01:22:26;;;;;;;0.50;0.40;;;5.70;57.30;;;0.72;100.00;93708.97;4942851;28;20034;-50
2024/03/29 01:24:52;;;;;;;1.73;0.50;;;5.70;57.30;;;0.77;100.00;93710.84;4952443;28;20452;-50
2024/03/29 01:27:18;;;;;;;0.77;0.32;;;5.70;57.40;;;0.81;100.00;93707.47;4947596;28;20110;-50
2024/03/29 01:29:44;;;;;;;0.60;0.40;;;5.80;57.40;;;0.93;100.00;93707.31;4949082;28;20453;-50
2024/03/29 01:32:10;;;;;;;0.70;0.40;;;5.80;57.50;;;1.00;100.00;93715.75;4944680;28;20142;-49
2024/03/29 01:34:36;;;;;;;1.48;0.70;;;5.80;57.60;;;1.09;100.00;93713.47;4948341;28;20034;-48
2024/03/29 01:37:02;;;;;;;1.75;0.38;;;5.90;57.70;;;1.22;100.00;93736.66;4951690;28;20513;-48
2024/03/29 01:39:31;;;;;;;1.58;0.55;;;5.90;57.70;;;1.42;100.00;93724.75;4948859;28;20062;-51
2024/03/29 01:41:57;;;;;;;0.50;0.47;;;6.00;57.90;;;1.54;100.00;93733.22;4946190;28;20033;-48
2024/03/29 01:44:23;;;;;;;0.35;0.30;;;6.10;57.90;;;1.67;100.00;93740.63;4946058;28;20033;-48
2024/03/29 01:46:49;;;;;;;8.07;0.50;;;6.20;57.90;;;1.81;100.00;93733.88;4948935;28;20398;-48
2024/03/29 01:49:17;;;;;;;1.65;0.52;;;6.30;57.80;;;1.87;100.00;93750.44;4949958;28;20037;-49
2024/03/29 01:51:45;;;;;;;0.60;0.43;;;6.30;57.80;;;1.88;99.87;93735.47;4947337;28;20039;-47
2024/03/29 01:54:12;;;;;;;0.70;0.40;;;6.40;57.60;;;1.82;99.40;93743.34;4950416;28;20117;-47
2024/03/29 01:56:41;;;;;;;0.95;0.55;;;6.50;57.50;;;1.80;100.00;93749.91;4943587;28;20023;-47
2024/03/29 01:59:17;;;;;;;0.65;0.52;;;6.50;57.30;;;1.80;100.00;93752.53;4964090;28;20038;-48
2024/03/29 02:01:45;;;;;;;1.23;0.60;;;6.50;57.20;;;1.75;100.00;93744.59;4950785;28;20444;-53
2024/03/29 02:04:11;;;;;;;0.57;0.40;;;6.50;57.10;;;1.71;100.00;93741.69;4949351;28;20553;-50
2024/03/29 02:06:40;;;;;;;0.95;0.50;;;6.50;57.10;;;1.62;100.00;93730.88;4951747;28;20058;-50
2024/03/29 02:09:06;;;;;;;2.10;0.50;;;6.50;57.00;;;1.61;100.00;93726.69;4950427;28;20029;-49
2024/03/29 02:11:35;;;;;;;1.17;0.45;;;6.50;56.90;;;1.58;100.00;93727.19;4951819;28;20026;-47
2024/03/29 02:14:01;;;;;;;1.95;0.60;;;6.50;57.00;;;1.56;100.00;93723.22;4946546;28;20493;-48
2024/03/29 02:16:27;;;;;;;0.70;0.50;;;6.50;56.90;;;1.52;100.00;93728.22;4951065;28;20502;-47
2024/03/29 02:18:53;;;;;;;0.50;0.50;;;6.40;56.80;;;1.45;100.00;93729.47;4948924;28;20037;-49
2024/03/29 02:21:19;;;;;;;1.23;0.50;;;6.40;56.90;;;1.34;100.00;93726.75;4943302;28;20035;-53
2024/03/29 02:24:13;;;;;;;1.30;0.47;;;6.30;56.80;;;1.34;100.00;93718.91;4948094;28;20097;-47
2024/03/29 02:26:42;;;;;;;0.77;0.50;;;6.30;56.90;;;1.28;100.00;93712.03;4967466;28;20393;-49
2024/03/29 02:29:09;;;;;;;0.52;0.52;;;6.30;56.80;;;1.26;100.00;93700.22;4955904;28;20019;-48
2024/03/29 02:31:35;;;;;;;0.77;0.43;;;6.20;56.80;;;1.22;100.00;93702.53;4949266;28;20118;-47
2024/03/29 02:34:01;;;;;;;0.80;0.40;;;6.20;56.90;;;1.17;100.00;93697.28;4955784;28;20205;-49
2024/03/29 02:36:27;;;;;;;2.58;0.40;;;6.10;56.90;;;1.15;100.00;93691.50;4953974;28;20506;-47
2024/03/29 02:38:53;;;;;;;0.88;0.50;;;6.10;57.00;;;1.12;100.00;93695.41;4949140;28;20030;-47
2024/03/29 02:41:19;;;;;;;1.33;0.40;;;6.10;57.10;;;1.10;100.00;93694.88;4951756;28;20426;-50
2024/03/29 02:43:44;;;;;;;1.00;0.70;;;6.10;57.10;;;1.08;100.00;93698.78;4953413;28;20022;-47
2024/03/29 02:46:10;;;;;;;0.40;0.40;;;6.10;57.10;;;1.06;100.00;93706.09;4950195;28;20089;-53
2024/03/29 02:48:36;;;;;;;0.50;0.50;;;6.00;57.10;;;1.07;100.00;93707.72;4952837;28;20153;-48
2024/03/29 02:51:02;;;;;;;1.30;0.43;;;6.00;57.30;;;1.09;100.00;93711.63;4955969;28;20077;-47
2024/03/29 02:53:28;;;;;;;0.90;0.50;;;6.10;57.40;;;1.09;100.00;93716.09;4953605;28;20034;-50
2024/03/29 02:55:54;;;;;;;0.52;0.50;;;6.10;57.40;;;1.09;100.00;93711.63;4951585;28;20389;-48
2024/03/29 02:58:20;;;;;;;1.25;0.57;;;6.10;57.40;;;1.08;100.00;93717.16;4951695;28;20401;-49
2024/03/29 03:00:46;;;;;;;0.63;0.50;;;6.10;57.50;;;1.16;100.00;93719.31;4950684;28;20026;-47
2024/03/29 03:03:16;;;;;;;1.00;0.50;;;6.10;57.50;;;1.16;100.00;93721.94;4943600;28;20039;-51
2024/03/29 03:05:42;;;;;;;1.60;0.50;;;6.10;57.50;;;1.15;100.00;93725.59;4954724;28;20026;-50
2024/03/29 03:10:56;;;;;;;1.00;0.68;;;6.10;57.50;;;1.19;100.00;93718.00;4952982;28;20041;-48
2024/03/29 03:13:22;;;;;;;1.35;0.90;;;6.10;57.60;;;1.13;100.00;93710.13;4950657;28;20031;-50
2024/03/29 03:15:48;;;;;;;1.25;0.90;;;6.10;57.60;;;1.09;100.00;93722.13;4956827;28;20034;-48
2024/03/29 03:18:14;;;;;;;1.35;0.90;;;6.10;57.70;;;1.17;100.00;93722.72;4948535;28;20030;-49
2024/03/29 03:20:40;;;;;;;3.58;1.25;;;6.10;57.70;;;1.24;100.00;93728.53;4950041;28;20385;-47
2024/03/29 03:23:06;;;;;;;1.75;1.30;;;6.10;57.90;;;1.32;100.00;93725.47;4951992;28;20114;-48
2024/03/29 03:25:33;;;;;;;1.40;1.05;;;6.10;58.00;;;1.34;100.00;93720.72;4952522;28;20113;-49
2024/03/29 03:27:59;;;;;;;3.47;1.20;;;6.20;58.00;;;1.37;100.00;93717.59;4943769;28;20034;-48
2024/03/29 03:30:24;;;;;;;1.65;1.10;;;6.20;58.00;;;1.37;100.00;93728.09;4952091;28;20023;-47
2024/03/29 03:32:50;;;;;;;1.88;1.30;;;6.20;58.00;;;1.36;100.00;93732.56;4953037;28;20053;-47
2024/03/29 03:35:16;;;;;;;2.45;1.48;;;6.20;58.00;;;1.35;100.00;93754.59;4957298;28;20033;-49
2024/03/29 03:37:42;;;;;;;2.20;1.40;;;6.30;58.00;;;1.34;100.00;93754.84;4948548;28;20134;-46
2024/03/29 03:40:09;;;;;;;2.78;1.30;;;6.30;58.10;;;1.31;100.00;93756.13;4950730;28;20569;-53
2024/03/29 03:42:35;;;;;;;2.22;1.10;;;6.30;58.00;;;1.29;100.00;93739.09;4944569;28;20050;-50
2024/03/29 03:45:01;;;;;;;3.00;1.63;;;6.30;58.00;;;1.29;100.00;93747.75;4954090;28;20057;-50
2024/03/29 03:47:26;;;;;;;2.70;1.42;;;6.30;58.00;;;1.27;100.00;93735.91;4944410;28;20034;-49
2024/03/29 03:49:52;;;;;;;2.38;1.40;;;6.30;58.00;;;1.23;100.00;93735.63;4947978;28;20513;-52
2024/03/29 03:52:18;;;;;;;2.72;1.48;;;6.30;58.00;;;1.22;100.00;93735.84;4948741;28;20485;-48
2024/03/29 03:54:44;;;;;;;1.92;1.38;;;6.30;58.00;;;1.10;100.00;93736.84;4946359;28;20034;-52
2024/03/29 03:57:10;;;;;;;3.33;1.50;;;6.30;58.00;;;1.20;100.00;93748.44;4951437;28;20030;-47
2024/03/29 03:59:36;;;;;;;4.57;1.50;;;6.20;58.10;;;1.14;100.00;93743.16;4946571;28;20458;-50
2024/03/29 04:02:02;;;;;;;2.55;1.38;;;6.20;58.10;;;1.14;100.00;93735.28;4947152;28;20163;-51
2024/03/29 04:04:28;;;;;;;3.47;2.00;;;6.20;58.10;;;1.10;100.00;93734.22;4948240;28;20026;-51
2024/03/29 04:06:53;;;;;;;2.58;1.50;;;6.20;58.20;;;1.05;100.00;93725.50;4946919;28;20485;-50
2024/03/29 04:09:19;;;;;;;3.10;1.50;;;6.20;58.40;;;1.12;100.00;93733.94;4947300;28;20381;-49
2024/03/29 04:11:45;;;;;;;4.68;1.65;;;6.20;58.40;;;1.13;100.00;93717.19;4945728;28;20038;-49
2024/03/29 04:14:11;;;;;;;2.58;1.30;;;6.20;58.60;;;1.21;100.00;93726.41;4947390;28;20027;-49
2024/03/29 04:16:37;;;;;;;2.53;1.40;;;6.20;58.60;;;1.25;100.00;93711.75;4950289;28;20046;-47
2024/03/29 04:19:03;;;;;;;2.28;1.45;;;6.20;58.70;;;1.25;100.00;93711.75;4949357;28;20474;-47
2024/03/29 04:21:28;;;;;;;3.97;1.60;;;6.20;58.80;;;1.29;100.00;93739.88;4946976;28;20466;-52
2024/03/29 04:23:54;;;;;;;2.53;1.33;;;6.20;58.80;;;1.34;100.00;93744.34;4948328;28;20104;-49
2024/03/29 04:26:20;;;;;;;2.83;1.65;;;6.30;58.80;;;1.34;100.00;93758.25;4947718;28;20039;-50
2024/03/29 04:28:46;;;;;;;3.72;1.50;;;6.30;58.80;;;1.38;100.00;93761.19;4946791;28;20038;-47
2024/03/29 04:31:12;;;;;;;5.68;1.38;;;6.30;58.80;;;1.40;100.00;93756.47;4947549;28;20034;-47
2024/03/29 04:33:38;;;;;;;2.20;1.20;;;6.40;58.80;;;1.42;100.00;93753.59;4951375;28;20030;-49
2024/03/29 04:36:05;;;;;;;2.17;1.40;;;6.50;58.80;;;1.40;100.00;93748.59;4948546;28;20155;-47
2024/03/29 04:38:32;;;;;;;1.90;1.38;;;6.50;58.90;;;1.43;100.00;93737.59;4941605;28;20031;-48
2024/03/29 04:40:59;;;;;;;4.18;1.40;;;6.50;58.80;;;1.48;100.00;93735.00;4946250;28;20209;-51
2024/03/29 04:43:28;;;;;;;2.40;1.30;;;6.50;58.80;;;1.52;100.00;93727.41;4950718;28;20135;-48
2024/03/29 04:46:11;;;;;;;2.63;1.30;;;6.60;58.90;;;1.69;100.00;93722.78;4945842;28;20026;-47
2024/03/29 04:48:43;;;;;;;2.17;1.10;;;6.60;59.10;;;1.80;100.00;93710.50;4946065;28;20481;-47
2024/03/29 04:51:09;;;;;;;1.10;0.70;;;6.70;59.10;;;1.91;100.00;93722.63;4946742;28;20473;-49
2024/03/29 04:53:40;;;;;;;1.30;1.00;;;6.80;59.10;;;1.93;100.00;93731.06;4948318;28;20425;-50
2024/03/29 04:56:07;;;;;;;1.27;0.85;;;6.80;59.10;;;2.03;100.00;93736.34;4941532;28;20035;-48
2024/03/29 04:58:33;;;;;;;2.25;0.88;;;6.90;59.00;;;2.09;100.00;93769.47;4947888;28;20413;-47
2024/03/29 05:01:00;;;;;;;1.50;1.02;;;7.00;59.00;;;2.15;100.00;93796.56;4946952;28;20038;-46
2024/03/29 05:03:26;;;;;;;1.52;0.95;;;7.00;58.90;;;2.18;100.00;93826.78;4944309;28;20077;-47
2024/03/29 05:05:53;;;;;;;2.45;1.60;;;7.10;58.90;;;2.23;100.00;93847.84;4951094;28;20038;-47
2024/03/29 05:08:22;;;;;;;1.55;1.20;;;7.20;58.90;;;2.24;100.00;93859.94;4942471;28;20444;-47
2024/03/29 05:10:50;;;;;;;2.53;1.20;;;7.20;58.90;;;2.28;100.00;93853.09;4946163;28;20023;-47
2024/03/29 05:13:17;;;;;;;1.80;1.02;;;7.30;58.80;;;2.31;100.00;93858.63;4944082;28;20064;-47
2024/03/29 05:15:43;;;;;;;1.95;1.17;;;7.30;58.70;;;2.35;100.00;93851.06;4951554;28;20077;-50
2024/03/29 05:18:09;;;;;;;2.45;1.17;;;7.40;58.70;;;2.37;100.00;93832.41;4943214;28;20018;-47
2024/03/29 05:20:36;;;;;;;1.60;1.10;;;7.40;58.70;;;2.43;100.00;93820.88;4943178;28;22740;-50
2024/03/29 05:23:02;;;;;;;1.55;0.98;;;7.50;58.70;;;2.49;100.00;93823.25;4948161;28;20394;-47
2024/03/29 05:25:28;;;;;;;3.83;1.25;;;7.50;58.70;;;2.52;100.00;93814.84;4947612;28;20018;-48
2024/03/29 05:27:54;;;;;;;3.17;1.15;;;7.60;58.80;;;2.60;100.00;93812.78;4945064;28;20038;-46
2024/03/29 05:30:20;;;;;;;2.03;1.33;;;7.60;58.80;;;2.70;100.00;93808.38;4945876;28;20257;-47
2024/03/29 05:32:46;;;;;;;2.67;1.30;;;7.70;59.00;;;3.01;100.00;93782.94;4947126;28;20018;-47
2024/03/29 05:35:13;;;;;;;1.85;1.30;;;7.80;59.10;;;3.23;100.00;93766.91;4951470;28;20038;-52
2024/03/29 05:37:40;;;;;;;4.07;1.55;;;8.00;59.20;;;3.39;100.00;93766.91;4941656;28;20047;-48
2024/03/29 05:40:08;;;;;;;3.05;1.10;;;8.10;59.10;;;3.55;100.00;93757.16;4948012;28;20497;-50
2024/03/29 05:42:36;;;;;;;1.73;1.10;;;8.30;59.00;;;3.62;100.00;93755.81;4949484;28;20038;-51
2024/03/29 05:45:05;;;;;;;2.05;1.15;;;8.50;58.90;;;3.69;100.00;93745.78;4952001;28;20030;-47
2024/03/29 05:47:31;;;;;;;3.25;1.20;;;8.60;58.70;;;3.76;100.00;93750.00;4941465;28;20493;-47
2024/03/29 05:49:57;;;;;;;5.05;1.10;;;8.70;58.60;;;3.86;100.00;93757.91;4945808;28;20038;-47
2024/03/29 05:52:23;;;;;;;3.53;1.15;;;8.80;58.40;;;3.90;99.75;93759.72;4945860;28;20421;-48
2024/03/29 05:54:50;;;;;;;1.40;0.98;;;9.00;58.40;;;4.09;99.72;93767.06;4943334;28;20034;-47
2024/03/29 05:57:16;;;;;;;12.10;1.33;;;9.20;58.20;;;4.25;100.00;93781.78;4948277;28;20018;-49
2024/03/29 05:59:42;;;;;;;4.07;1.20;;;9.40;58.10;;;4.34;98.99;93800.47;4940783;28;20039;-48
2024/03/29 06:02:08;;;;;;;4.30;1.42;;;9.50;58.00;;;4.47;98.59;93817.56;4945503;28;20118;-50
2024/03/29 06:04:34;;;;;;;2.60;1.17;;;9.60;57.80;;;4.61;98.23;93831.75;4943367;28;20105;-48
2024/03/29 06:07:02;;;;;;;3.20;1.17;;;9.80;57.80;;;4.72;96.85;93828.00;4943801;28;20038;-48
2024/03/29 06:09:29;;;;;;;2.88;1.23;;;9.90;57.60;;;4.88;97.01;93837.44;4945778;28;20409;-48
2024/03/29 06:11:57;;;;;;;2.13;1.10;;;10.10;57.50;;;5.05;96.78;93831.03;4940652;28;20035;-48
2024/03/29 06:17:23;;;;;;;2.78;1.42;;;10.50;57.20;;;5.28;94.96;93825.09;4939607;28;20046;-47
2024/03/29 06:20:02;;;;;;;2.30;1.33;;;10.70;57.00;;;5.45;94.14;93811.53;4944728;28;20050;-48
2024/03/29 06:22:30;;;;;;;3.15;1.20;;;10.90;56.80;;;5.66;93.61;93798.16;4948201;28;20031;-46
2024/03/29 06:25:04;;;;;;;1.00;0.80;;;11.00;56.50;;;5.79;91.43;93790.34;4946329;28;20090;-49
2024/03/29 06:27:36;;;;;;;2.58;1.15;;;11.20;56.40;;;5.91;89.21;93779.44;4945539;28;20033;-49
2024/03/29 06:30:04;;;;;;;3.28;1.20;;;11.40;56.10;;;6.01;89.84;93768.00;4951118;28;20030;-53
2024/03/29 06:32:33;;;;;;;3.90;1.30;;;11.50;56.00;;;6.10;90.26;93774.25;4951023;28;20414;-51
2024/03/29 06:35:00;;;;;;;2.08;1.08;;;11.50;55.80;;;6.21;91.42;93772.31;4951838;28;20029;-49
2024/03/29 06:37:27;;;;;;;1.92;1.20;;;11.60;55.80;;;6.34;91.98;93768.19;4950808;28;20077;-49
2024/03/29 06:39:53;;;;;;;3.90;1.00;;;11.70;55.70;;;6.42;92.26;93765.69;4947829;28;20370;-49
2024/03/29 06:42:19;;;;;;;0.80;0.77;;;11.80;55.60;;;6.50;90.39;93753.72;4950897;28;20121;-48
2024/03/29 06:44:45;;;;;;;1.65;1.00;;;11.90;55.60;;;6.62;89.40;93754.09;4951255;28;20109;-47
2024/03/29 06:47:12;;;;;;;1.55;1.20;;;12.00;55.50;;;6.73;89.60;93758.19;4949758;28;20034;-52
2024/03/29 06:49:39;;;;;;;2.30;0.90;;;12.10;55.40;;;6.84;90.33;93753.56;4951487;28;20403;-51
2024/03/29 06:52:06;;;;;;;1.23;0.88;;;12.10;55.30;;;6.90;90.55;93760.34;4937297;28;20042;-51
2024/03/29 06:54:32;;;;;;;1.48;0.90;;;12.20;55.30;;;7.00;92.27;93758.66;4951157;28;20205;-51
2024/03/29 06:56:59;;;;;;;1.02;0.80;;;12.20;55.30;;;7.10;93.51;93761.16;4950576;28;20054;-54
2024/03/29 06:59:25;;;;;;;1.00;0.80;;;12.30;55.40;;;7.25;93.90;93770.75;4950606;28;20035;-49
2024/03/29 07:01:54;;;;;;;3.20;0.90;;;12.40;55.50;;;7.38;93.94;93759.41;4948766;28;20061;-49
2024/03/29 07:04:23;;;;;;;1.80;0.88;;;12.50;55.50;;;7.51;94.72;93769.28;4943447;28;20031;-48
2024/03/29 07:06:53;;;;;;;1.00;0.70;;;12.80;55.60;;;7.71;92.29;93762.06;4944492;28;20050;-47
2024/03/29 07:09:23;;;;;;;0.90;0.75;;;13.00;55.50;;;7.95;92.28;93748.69;4943567;28;20427;-48
2024/03/29 07:11:51;;;;;;;1.50;0.95;;;13.40;55.40;;;8.27;89.91;93731.91;4941347;28;20027;-50
2024/03/29 07:14:19;;;;;;;2.03;0.80;;;13.80;55.10;;;8.65;87.13;93716.59;4954302;28;20077;-50
2024/03/29 07:16:46;;;;;;;0.80;0.80;;;14.30;54.70;;;9.14;85.81;93716.88;4954533;28;20389;-49
2024/03/29 07:19:15;;;;;;;1.88;0.60;;;14.80;54.30;;;9.57;78.83;93727.84;4954337;28;20453;-49
2024/03/29 07:21:46;;;;;;;0.98;0.73;;;15.20;53.60;;;10.02;69.54;93727.78;4952604;28;20029;-54
2024/03/29 07:24:12;;;;;;;0.68;0.65;;;15.70;52.80;;;10.44;60.32;93716.88;4955957;28;20370;-52
2024/03/29 07:26:40;;;;;;;0.90;0.60;;;16.20;51.80;;;10.85;65.79;93714.63;4953775;28;20023;-54
2024/03/29 07:29:07;;;;;;;1.00;0.68;;;16.60;51.00;;;10.88;59.68;93705.22;4953991;28;20490;-50
2024/03/29 07:31:36;;;;;;;1.40;0.90;;;17.00;49.90;;;10.79;59.12;93709.75;4954443;28;20391;-52
2024/03/29 07:34:02;;;;;;;0.82;0.82;;;17.30;48.50;;;10.82;59.68;93709.13;4953786;28;20495;-53
2024/03/29 07:36:33;;;;;;;1.15;1.02;;;17.60;47.80;;;10.89;60.82;93704.91;4954395;28;20051;-53
2024/03/29 07:39:01;;;;;;;2.50;0.85;;;17.70;47.20;;;11.18;59.29;93702.72;4950313;28;20402;-52
2024/03/29 07:41:27;;;;;;;0.80;0.80;;;17.90;46.60;;;11.50;57.81;93712.13;4954669;28;20030;-55
2024/03/29 07:44:03;;;;;;;0.68;0.68;;;18.20;46.10;;;11.79;57.53;93714.91;4957817;28;20023;-56
2024/03/29 07:46:34;;;;;;;1.48;0.98;;;18.40;45.60;;;12.24;56.70;93719.84;4953370;28;20474;-52
2024/03/29 07:49:01;;;;;;;1.35;1.10;;;18.70;45.00;;;12.66;56.52;93713.84;4954815;28;20582;-53
2024/03/29 07:51:27;;;;;;;1.38;0.90;;;18.90;45.00;;;12.98;53.31;93698.28;4947809;28;20035;-55
2024/03/29 07:53:53;;;;;;;0.98;0.80;;;19.30;44.30;;;12.96;52.99;93699.38;4953936;28;20026;-52
2024/03/29 07:56:21;;;;;;;1.73;1.05;;;19.50;43.50;;;13.06;50.73;93700.88;4953035;28;20507;-53
2024/03/29 07:58:53;;;;;;;2.63;1.40;;;19.70;42.70;;;13.19;50.55;93699.84;4952389;28;20433;-55
2024/03/29 08:01:21;;;;;;;1.05;0.90;;;19.70;41.90;;;13.19;50.36;93705.19;4953872;28;20474;-52
2024/03/29 08:03:53;;;;;;;1.20;1.10;;;19.70;41.60;;;13.10;52.36;93699.13;4950277;28;20169;-53
2024/03/29 08:06:19;;;;;;;1.40;0.93;;;19.60;41.20;;;13.17;50.75;93701.28;4953768;28;20131;-52
2024/03/29 08:08:46;;;;;;;0.77;0.73;;;19.50;41.10;;;13.15;51.80;93714.19;4947704;28;20022;-57
2024/03/29 08:11:12;;;;;;;1.45;1.00;;;19.40;41.10;;;13.31;52.02;93730.44;4950897;28;20026;-52
2024/03/29 08:13:40;;;;;;;2.38;0.90;;;19.50;41.10;;;13.50;51.49;93736.13;4953977;28;20031;-56
2024/03/29 08:16:06;;;;;;;1.30;0.90;;;19.50;41.10;;;13.67;50.36;93745.91;4952301;28;20043;-53
2024/03/29 08:18:36;;;;;;;2.55;0.82;;;19.70;41.00;;;13.81;49.63;93756.31;4953617;28;20149;-54
2024/03/29 08:21:02;;;;;;;2.47;1.02;;;19.80;40.70;;;13.81;47.37;93751.75;4950512;28;20031;-53
2024/03/29 08:23:30;;;;;;;2.15;0.93;;;19.90;40.20;;;13.74;48.55;93756.84;4952680;28;20041;-54
2024/03/29 08:25:56;;;;;;;2.70;0.98;;;20.00;39.60;;;13.81;50.37;93745.63;4953668;28;20034;-55
2024/03/29 08:28:23;;;;;;;1.40;1.10;;;20.10;39.50;;;13.79;49.17;93747.84;4952045;28;20088;-52
2024/03/29 08:31:10;;;;;;;1.38;1.10;;;20.20;39.00;;;13.97;49.08;93743.09;4945618;28;20165;-56
2024/03/29 08:33:39;;;;;;;2.95;1.10;;;20.30;38.90;;;13.87;49.36;93755.00;4952697;28;20030;-54
2024/03/29 08:36:10;;;;;;;1.55;1.02;;;20.40;39.30;;;13.92;49.79;93760.16;4953158;28;20093;-54
2024/03/29 08:38:43;;;;;;;1.10;1.00;;;20.50;38.40;;;14.02;49.53;93753.59;4952420;28;20127;-55
2024/03/29 08:41:09;;;;;;;1.88;1.02;;;20.50;38.30;;;14.29;49.20;93763.72;4953417;28;20026;-52
2024/03/29 08:43:36;;;;;;;1.85;1.25;;;20.70;38.10;;;14.43;49.20;93765.31;4953809;28;20492;-55
2024/03/29 08:46:01;;;;;;;1.63;1.10;;;21.00;38.00;;;14.72;49.15;93765.13;4951511;28;20022;-54
2024/03/29 08:48:27;;;;;;;1.55;0.95;;;21.20;37.70;;;14.66;49.96;93763.78;4952988;28;20105;-56
2024/03/29 08:50:54;;;;;;;1.80;1.30;;;21.40;37.60;;;14.70;50.51;93772.75;4952288;28;20019;-55
2024/03/29 08:53:21;;;;;;;1.92;1.20;;;21.50;37.50;;;14.73;49.87;93774.00;4953057;28;20026;-51
2024/03/29 08:55:48;;;;;;;1.48;0.80;;;21.60;37.50;;;14.60;46.31;93783.09;4952827;28;20026;-55
2024/03/29 08:58:15;;;;;;;1.42;1.20;;;21.70;36.60;;;14.11;46.58;93775.72;4950562;28;20022;-50
2024/03/29 09:00:41;;;;;;;1.88;1.10;;;21.70;35.60;;;13.41;48.19;93765.63;4952936;28;20226;-52
2024/03/29 09:03:07;;;;;;;1.98;1.10;;;21.50;35.10;;;13.49;48.56;93771.22;4950028;28;20038;-53
2024/03/29 09:05:33;;;;;;;2.17;0.88;;;21.40;35.00;;;13.61;50.12;93777.41;4952949;28;20481;-53
2024/03/29 09:07:59;;;;;;;1.35;0.95;;;21.20;35.20;;;13.50;49.97;93778.91;4952865;28;20088;-54
2024/03/29 09:10:29;;;;;;;1.27;1.10;;;21.00;35.40;;;13.46;50.44;93786.03;4952181;28;20022;-52
2024/03/29 09:12:55;;;;;;;1.63;1.20;;;20.80;35.50;;;13.39;50.03;93778.53;4953165;28;20054;-55
2024/03/29 09:15:21;;;;;;;1.20;1.10;;;20.80;35.70;;;13.44;50.82;93772.19;4952872;28;20065;-57
2024/03/29 09:17:47;;;;;;;2.05;1.20;;;20.80;35.80;;;13.47;51.06;93776.88;4953366;28;20030;-57
2024/03/29 09:20:14;;;;;;;1.38;1.08;;;20.60;35.90;;;13.34;50.61;93777.94;4948848;28;20019;-54
2024/03/29 09:22:40;;;;;;;1.60;1.10;;;20.50;35.90;;;13.52;50.54;93782.06;4947306;28;20040;-57
2024/03/29 09:25:09;;;;;;;1.63;1.10;;;20.50;36.10;;;13.86;49.91;93789.00;4952251;28;20092;-55
2024/03/29 09:27:36;;;;;;;2.00;1.17;;;20.60;36.30;;;13.88;49.22;93794.84;4946545;28;20034;-56
2024/03/29 09:30:07;;;;;;;1.63;1.30;;;20.70;36.20;;;13.60;50.39;93791.09;4952581;28;20031;-53
2024/03/29 09:32:33;;;;;;;2.28;1.10;;;20.90;36.00;;;13.01;52.59;93778.59;4951380;28;20117;-56
2024/03/29 09:35:00;;;;;;;1.63;1.02;;;20.90;36.00;;;13.15;51.86;93787.13;4952459;28;20022;-54
2024/03/29 09:37:26;;;;;;;2.55;1.10;;;20.90;36.00;;;13.68;51.35;93784.91;4951660;28;20421;-54
2024/03/29 09:39:52;;;;;;;1.63;1.15;;;20.90;36.00;;;14.03;49.46;93755.16;4951688;28;20565;-56
2024/03/29 09:42:25;;;;;;;0.95;0.90;;;21.00;36.00;;;13.93;48.56;93753.69;4948787;28;20626;-54
2024/03/29 09:44:53;;;;;;;2.97;1.20;;;21.10;35.60;;;13.98;47.99;93758.06;4955100;28;20553;-52
2024/03/29 09:47:22;;;;;;;1.20;1.10;;;21.20;35.60;;;14.05;48.23;93726.97;4962681;28;20141;-57
2024/03/29 09:49:51;;;;;;;1.13;1.02;;;21.40;35.40;;;14.31;48.81;93731.25;4952361;28;20030;-53
2024/03/29 09:52:19;;;;;;;1.67;1.30;;;21.50;35.30;;;14.79;47.68;93730.53;4947886;28;20488;-51
2024/03/29 09:54:45;;;;;;;1.70;1.10;;;21.70;35.80;;;15.20;46.08;93730.63;4963963;28;20050;-52
2024/03/29 09:57:17;;;;;;;2.10;1.40;;;22.00;34.90;;;15.78;44.49;93731.13;4948757;28;20481;-52
2024/03/29 09:59:43;;;;;;;2.10;1.20;;;22.60;34.50;;;16.17;43.23;93728.75;4952285;28;20197;-53
2024/03/29 10:02:17;;;;;;;1.08;1.00;;;23.10;34.10;;;16.04;46.09;93746.00;4952092;28;20033;-53
2024/03/29 10:04:48;;;;;;;2.60;1.20;;;23.70;33.40;;;16.11;43.25;93743.53;4948914;28;20109;-53
2024/03/29 10:07:15;;;;;;;5.20;1.30;;;24.10;32.80;;;16.12;44.93;93731.66;4951604;28;20045;-54
2024/03/29 10:09:44;;;;;;;1.10;1.08;;;24.30;32.60;;;16.86;43.79;93713.94;4963073;28;20360;-54
2024/03/29 10:12:10;;;;;;;1.38;0.90;;;24.60;32.30;;;17.24;40.78;93720.56;4951921;28;20031;-56
2024/03/29 10:14:49;;;;;;;1.10;1.05;;;25.00;31.80;;;17.56;40.53;93707.00;4947786;28;20145;-55
2024/03/29 10:17:17;;;;;;;1.02;0.90;;;25.30;31.10;;;17.92;40.90;93702.31;4949016;28;20490;-53
2024/03/29 10:19:45;;;;;;;1.27;1.10;;;25.60;31.00;;;18.56;39.95;93706.16;4951208;28;20036;-51
2024/03/29 10:22:11;;;;;;;1.77;1.15;;;25.90;30.90;;;18.92;39.53;93712.13;4959539;28;20502;-54
2024/03/29 10:24:37;;;;;;;2.17;1.20;;;26.40;30.70;;;19.13;39.87;93712.47;4949614;28;20042;-53
2024/03/29 10:27:04;;;;;;;1.70;1.30;;;26.80;30.30;;;19.48;40.15;93721.41;4946912;28;20037;-53
2024/03/29 10:29:30;;;;;;;1.35;1.25;;;27.20;30.20;;;20.07;40.13;93720.63;4945990;28;20117;-52
2024/03/29 10:31:57;;;;;;;1.63;1.23;;;27.70;30.20;;;20.73;38.15;93715.50;4948889;28;20046;-56